Belvedere Tiburon, California
Current Conditions -  °F | °C
As of 10:53 AM on Sunday 23 Nov 2014 (Local Time) from KOAK Reporting Station
Broken Clouds Broken Clouds  
Wind Chill: 59°   Ceiling: 25000
Heat Index: 59°   Visibility: 10mi
Dew Point: 45°   Wind: 3mph
Humidity: 60%   Direction: 260°W
Pressure: 30.35"   Gusts: NA
Location:  37.89°N, 122.47°W
Report Text: KOAK 231853Z 26003KT 10SM FEW100 BKN250 15/07 A3035 RMK AO2 SLP276 T01500072 $
Loading
Personal Weather Stations






























Interactive Weather Map New forecast layout! Learn more

10-Day Weather Forecast

Advertisements
Track Severe Weather on mobile